Time;durP1;ratioP1;P1;durP2;ratioP2;P2;SDS_P1;SDS_P2;PMS_P1;PMS_P2;Temp;Humidity;BMP_temperature;BMP_pressure;BME280_temperature;BME280_humidity;BME280_pressure;Samples;Min_cycle;Max_cycle;Signal;HPM_P1;HPM_P2
2022/01/09 00:00:23;;;;;;;32.70;10.07;;;-5.80;99.90;;;;;;5016623;28;20054;-75
2022/01/09 00:02:51;;;;;;;22.33;9.43;;;-5.80;99.90;;;;;;5020696;28;20536;-77
2022/01/09 00:05:19;;;;;;;28.20;11.52;;;-5.80;99.90;;;;;;5027510;28;20046;-76
2022/01/09 00:07:48;;;;;;;34.88;11.25;;;-5.70;99.90;;;;;;5020445;28;20056;-76
2022/01/09 00:10:16;;;;;;;25.33;10.75;;;-5.60;99.90;;;;;;5023008;28;20441;-76
2022/01/09 00:12:44;;;;;;;26.08;10.63;;;-5.60;99.90;;;;;;5018320;28;20049;-75
2022/01/09 00:15:12;;;;;;;19.10;9.45;;;-5.50;99.90;;;;;;5031259;28;20037;-74
2022/01/09 00:17:40;;;;;;;25.63;9.63;;;-5.40;99.90;;;;;;5007582;28;20056;-74
2022/01/09 00:20:10;;;;;;;26.27;10.07;;;-5.40;99.90;;;;;;5013361;28;20064;-76
2022/01/09 00:22:42;;;;;;;27.27;10.60;;;-5.30;99.90;;;;;;5024915;28;20046;-75
2022/01/09 00:25:12;;;;;;;23.42;9.15;;;-5.30;99.90;;;;;;5014286;28;20093;-75
2022/01/09 00:27:40;;;;;;;27.45;10.68;;;-5.30;99.90;;;;;;5030191;28;20103;-75
2022/01/09 00:30:10;;;;;;;25.13;10.40;;;-5.20;99.90;;;;;;5028625;28;20050;-75
2022/01/09 00:32:38;;;;;;;26.08;9.73;;;-5.20;99.90;;;;;;5007064;28;20513;-76
2022/01/09 00:35:07;;;;;;;21.98;9.32;;;-5.20;99.90;;;;;;5022849;28;20141;-76
2022/01/09 00:37:35;;;;;;;30.58;10.27;;;-5.20;99.90;;;;;;5017701;28;20144;-75
2022/01/09 00:40:04;;;;;;;23.48;10.13;;;-5.10;99.90;;;;;;5028914;28;20068;-76
2022/01/09 00:42:33;;;;;;;25.17;9.48;;;-5.10;99.90;;;;;;5030613;28;20056;-76
2022/01/09 00:45:01;;;;;;;28.45;9.93;;;-5.00;99.90;;;;;;5005486;28;20050;-76
2022/01/09 00:47:30;;;;;;;21.33;9.20;;;-5.00;99.90;;;;;;5028462;28;20422;-76
2022/01/09 00:49:58;;;;;;;20.08;9.35;;;-5.00;99.90;;;;;;5016399;28;20659;-76
2022/01/09 00:52:26;;;;;;;23.05;10.57;;;-5.00;99.90;;;;;;5018571;28;20077;-75
2022/01/09 00:54:53;;;;;;;22.83;10.65;;;-4.90;99.90;;;;;;5023119;28;20045;-75
2022/01/09 00:57:21;;;;;;;22.92;9.95;;;-4.90;99.90;;;;;;5022458;28;20461;-75
2022/01/09 00:59:50;;;;;;;24.52;10.00;;;-4.90;99.90;;;;;;5023713;28;20368;-75
2022/01/09 01:02:18;;;;;;;24.55;9.70;;;-4.90;99.90;;;;;;5029955;28;20072;-74
2022/01/09 01:04:47;;;;;;;16.77;9.15;;;-4.90;99.90;;;;;;5031526;28;20099;-75
2022/01/09 01:07:14;;;;;;;18.90;8.48;;;-4.90;99.90;;;;;;5042258;28;20053;-75
2022/01/09 01:09:42;;;;;;;24.83;9.75;;;-4.90;99.90;;;;;;5013085;28;20079;-75
2022/01/09 01:12:09;;;;;;;19.05;8.45;;;-4.80;99.90;;;;;;5013151;28;20053;-75
2022/01/09 01:14:37;;;;;;;19.13;10.05;;;-4.80;99.90;;;;;;5031008;28;20060;-75
2022/01/09 01:17:07;;;;;;;17.95;9.00;;;-4.80;99.90;;;;;;5028885;28;20038;-75
2022/01/09 01:19:35;;;;;;;20.60;9.75;;;-4.90;99.90;;;;;;5025709;28;20092;-75
2022/01/09 01:22:03;;;;;;;18.77;8.30;;;-4.90;99.90;;;;;;5020137;28;20053;-76
2022/01/09 01:24:30;;;;;;;16.23;8.13;;;-4.90;99.90;;;;;;5000988;28;20093;-76
2022/01/09 01:26:58;;;;;;;18.83;9.20;;;-4.80;99.90;;;;;;5023486;28;20084;-75
2022/01/09 01:29:25;;;;;;;19.15;9.52;;;-4.80;99.90;;;;;;5014464;28;20050;-77
2022/01/09 01:31:53;;;;;;;17.95;8.65;;;-4.80;99.90;;;;;;5014046;28;20041;-75
2022/01/09 01:34:22;;;;;;;19.83;8.95;;;-4.70;99.90;;;;;;5031355;28;20053;-75
2022/01/09 01:36:49;;;;;;;18.23;8.77;;;-4.60;99.90;;;;;;5029238;28;20119;-74
2022/01/09 01:39:17;;;;;;;19.77;8.75;;;-4.60;99.90;;;;;;5022435;28;20041;-74
2022/01/09 01:41:44;;;;;;;15.40;7.22;;;-4.60;99.90;;;;;;5010931;28;20045;-74
2022/01/09 01:44:13;;;;;;;19.02;8.05;;;-4.60;99.90;;;;;;5015129;28;20391;-75
2022/01/09 01:46:41;;;;;;;16.60;7.80;;;-4.60;99.90;;;;;;5011490;28;20409;-74
2022/01/09 01:49:11;;;;;;;20.55;7.50;;;-4.50;99.90;;;;;;5046145;28;20077;-75
2022/01/09 01:51:43;;;;;;;17.90;7.40;;;-4.50;99.90;;;;;;5007686;28;20050;-75
2022/01/09 01:54:14;;;;;;;14.77;6.85;;;-4.50;99.90;;;;;;5021710;28;20063;-75
2022/01/09 01:56:41;;;;;;;13.43;6.72;;;-4.50;99.90;;;;;;5017091;28;20045;-75
2022/01/09 01:59:09;;;;;;;12.50;6.60;;;-4.50;99.90;;;;;;5012252;28;20049;-75
2022/01/09 02:01:36;;;;;;;13.63;6.53;;;-4.50;99.90;;;;;;5040051;28;20165;-75
2022/01/09 02:04:05;;;;;;;12.15;6.80;;;-4.50;99.90;;;;;;5028306;28;20052;-75
2022/01/09 02:06:34;;;;;;;14.02;6.40;;;-4.50;99.90;;;;;;5002846;28;20041;-75
2022/01/09 02:09:05;;;;;;;12.27;5.15;;;-4.40;99.90;;;;;;5025856;28;20123;-74
2022/01/09 02:11:34;;;;;;;12.77;6.32;;;-4.40;99.90;;;;;;5021562;28;20441;-75
2022/01/09 02:14:01;;;;;;;11.48;5.57;;;-4.40;99.90;;;;;;5003148;28;20144;-75
2022/01/09 02:16:29;;;;;;;11.93;5.80;;;-4.40;99.90;;;;;;5010969;28;20050;-74
2022/01/09 02:18:58;;;;;;;12.15;5.32;;;-4.40;99.90;;;;;;5026257;28;20498;-74
2022/01/09 02:21:27;;;;;;;12.05;6.50;;;-4.40;99.90;;;;;;5024889;28;20148;-74
2022/01/09 02:23:54;;;;;;;10.88;5.22;;;-4.30;99.90;;;;;;5012039;28;20604;-74
2022/01/09 02:26:24;;;;;;;15.13;6.30;;;-4.30;99.90;;;;;;5010848;28;20387;-74
2022/01/09 02:28:52;;;;;;;13.95;6.38;;;-4.30;99.90;;;;;;5028512;28;20054;-74
2022/01/09 02:31:19;;;;;;;14.60;5.95;;;-4.40;99.90;;;;;;5014880;28;20054;-74
2022/01/09 02:33:47;;;;;;;8.77;5.40;;;-4.40;99.90;;;;;;5016246;28;20526;-74
2022/01/09 02:36:14;;;;;;;12.32;5.35;;;-4.30;99.90;;;;;;5028559;28;20046;-74
2022/01/09 02:38:43;;;;;;;9.75;5.50;;;-4.30;99.90;;;;;;5016178;28;20060;-75
2022/01/09 02:41:10;;;;;;;9.80;5.88;;;-4.30;99.90;;;;;;5030591;28;20049;-75
2022/01/09 02:43:38;;;;;;;9.63;5.72;;;-4.30;99.90;;;;;;5034151;28;20053;-75
2022/01/09 02:46:14;;;;;;;11.52;5.55;;;-4.30;99.90;;;;;;5026651;28;20441;-75
2022/01/09 02:48:43;;;;;;;14.32;5.82;;;-4.40;99.90;;;;;;5010461;28;20049;-74
2022/01/09 02:51:13;;;;;;;12.32;6.07;;;-4.40;99.90;;;;;;5033042;28;20575;-74
2022/01/09 02:53:45;;;;;;;11.10;5.75;;;-4.50;99.90;;;;;;4997762;28;20448;-75
2022/01/09 02:56:12;;;;;;;13.25;7.10;;;-4.50;99.90;;;;;;5020610;28;20095;-74
2022/01/09 02:58:41;;;;;;;12.85;5.85;;;-4.50;99.90;;;;;;5032918;28;20115;-74
2022/01/09 03:01:12;;;;;;;16.27;6.30;;;-4.50;99.90;;;;;;5033802;28;20061;-74
2022/01/09 03:03:40;;;;;;;14.80;5.93;;;-4.50;99.90;;;;;;5015370;28;20081;-74
2022/01/09 03:06:08;;;;;;;11.20;5.65;;;-4.50;99.90;;;;;;5015043;28;20053;-75
2022/01/09 03:08:35;;;;;;;11.05;5.43;;;-4.50;99.90;;;;;;5015597;28;20045;-75
2022/01/09 03:11:04;;;;;;;8.60;5.35;;;-4.50;99.90;;;;;;5016060;28;20472;-75
2022/01/09 03:13:32;;;;;;;11.60;5.63;;;-4.50;99.90;;;;;;5033018;28;20050;-74
2022/01/09 03:16:00;;;;;;;9.43;5.72;;;-4.50;99.90;;;;;;5030061;28;20046;-74
2022/01/09 03:18:27;;;;;;;9.05;4.95;;;-4.40;99.90;;;;;;5025911;28;20049;-74
2022/01/09 03:20:54;;;;;;;12.38;5.72;;;-4.40;99.90;;;;;;5014800;28;20509;-74
2022/01/09 03:23:22;;;;;;;11.73;5.40;;;-4.30;99.90;;;;;;5031575;28;20111;-74
2022/01/09 03:25:49;;;;;;;10.70;5.75;;;-4.30;99.90;;;;;;5033687;28;20084;-74
2022/01/09 03:28:18;;;;;;;10.55;5.25;;;-4.30;99.90;;;;;;5032858;28;20049;-75
2022/01/09 03:30:45;;;;;;;11.65;5.13;;;-4.30;99.90;;;;;;4997249;28;20050;-75
2022/01/09 03:33:13;;;;;;;10.23;5.07;;;-4.30;99.90;;;;;;5028857;28;20061;-74
2022/01/09 03:35:40;;;;;;;11.85;5.32;;;-4.30;99.90;;;;;;5014969;28;20502;-75
2022/01/09 03:38:07;;;;;;;11.65;4.88;;;-4.20;99.90;;;;;;5012826;28;20145;-74
2022/01/09 03:40:35;;;;;;;11.43;4.90;;;-4.20;99.90;;;;;;4985650;28;20076;-74
2022/01/09 03:43:02;;;;;;;10.07;4.88;;;-4.30;99.90;;;;;;5009685;28;20104;-74
2022/01/09 03:45:32;;;;;;;11.98;4.75;;;-4.30;99.90;;;;;;5032976;28;20080;-74
2022/01/09 03:48:02;;;;;;;10.68;5.35;;;-4.30;99.90;;;;;;5033094;28;20099;-74
2022/01/09 03:50:29;;;;;;;12.73;5.35;;;-4.30;99.90;;;;;;5023177;28;20054;-74
2022/01/09 03:52:56;;;;;;;11.82;5.03;;;-4.30;99.90;;;;;;5032397;28;20456;-74
2022/01/09 03:55:25;;;;;;;9.30;4.85;;;-4.30;99.90;;;;;;5024268;28;20048;-74
2022/01/09 03:57:53;;;;;;;7.60;4.53;;;-4.30;99.90;;;;;;5014250;28;20045;-74
2022/01/09 04:00:23;;;;;;;12.90;5.20;;;-4.20;99.90;;;;;;5031801;28;20049;-74
2022/01/09 04:02:53;;;;;;;10.35;4.93;;;-4.20;99.90;;;;;;5015274;28;20468;-74
2022/01/09 04:05:21;;;;;;;13.50;5.45;;;-4.20;99.90;;;;;;5027218;28;20056;-74
2022/01/09 04:07:48;;;;;;;8.90;5.15;;;-4.20;99.90;;;;;;5032407;28;20103;-74
2022/01/09 04:10:18;;;;;;;8.02;5.03;;;-4.20;99.90;;;;;;5026860;28;20532;-74
2022/01/09 04:12:51;;;;;;;8.93;5.88;;;-4.20;99.90;;;;;;4998843;28;20046;-74
2022/01/09 04:15:20;;;;;;;8.75;4.88;;;-4.20;99.90;;;;;;5011390;28;20471;-76
2022/01/09 04:17:51;;;;;;;10.38;5.15;;;-4.30;99.90;;;;;;5025878;28;20045;-77
2022/01/09 04:20:21;;;;;;;7.40;4.93;;;-4.30;99.90;;;;;;5027602;28;20057;-77
2022/01/09 04:22:49;;;;;;;9.63;4.85;;;-4.20;99.90;;;;;;5027533;28;20510;-76
2022/01/09 04:25:17;;;;;;;9.00;5.00;;;-4.10;99.90;;;;;;5029515;28;20132;-76
2022/01/09 04:27:46;;;;;;;8.35;5.30;;;-4.10;99.90;;;;;;5031906;28;20049;-76
2022/01/09 04:30:13;;;;;;;9.90;6.13;;;-4.10;99.90;;;;;;5017640;28;20499;-77
2022/01/09 04:32:42;;;;;;;7.25;4.65;;;-4.10;99.90;;;;;;4995384;28;20054;-76
2022/01/09 04:35:10;;;;;;;13.43;5.50;;;-4.10;99.90;;;;;;5022820;28;20080;-76
2022/01/09 04:37:40;;;;;;;11.48;5.65;;;-4.10;99.90;;;;;;5030605;28;20049;-76
2022/01/09 04:40:12;;;;;;;7.65;4.82;;;-4.10;99.90;;;;;;5028928;28;20395;-76
2022/01/09 04:42:43;;;;;;;7.65;4.88;;;-4.00;99.90;;;;;;5024331;28;20376;-76
2022/01/09 04:45:13;;;;;;;9.38;5.10;;;-4.00;99.90;;;;;;5018432;28;20049;-76
2022/01/09 04:47:43;;;;;;;10.45;5.43;;;-4.00;99.90;;;;;;5013185;28;20523;-76
2022/01/09 04:50:16;;;;;;;12.90;5.60;;;-4.00;99.90;;;;;;4995718;28;20148;-76
2022/01/09 04:52:45;;;;;;;6.35;4.57;;;-4.10;99.90;;;;;;5012589;28;20092;-76
2022/01/09 04:55:13;;;;;;;11.30;5.43;;;-4.10;99.90;;;;;;5039067;28;20120;-76
2022/01/09 04:57:40;;;;;;;8.77;5.20;;;-4.00;99.90;;;;;;5012546;28;20061;-76
2022/01/09 05:00:10;;;;;;;9.45;5.20;;;-4.00;99.90;;;;;;5018016;28;20128;-76
2022/01/09 05:02:37;;;;;;;10.23;5.95;;;-3.90;99.90;;;;;;5028922;28;20514;-76
2022/01/09 05:05:08;;;;;;;10.82;5.32;;;-4.00;99.90;;;;;;4998964;28;20056;-76
2022/01/09 05:07:36;;;;;;;11.82;5.13;;;-4.00;99.90;;;;;;5022361;28;20045;-76
2022/01/09 05:10:07;;;;;;;8.70;4.60;;;-4.00;99.90;;;;;;5030060;28;20111;-75
2022/01/09 05:12:35;;;;;;;9.65;5.20;;;-4.00;99.90;;;;;;5026390;28;20045;-76
2022/01/09 05:15:04;;;;;;;6.80;4.57;;;-4.00;99.90;;;;;;5013801;28;20053;-76
2022/01/09 05:17:31;;;;;;;11.13;5.55;;;-4.00;99.90;;;;;;5010409;28;20541;-75
2022/01/09 05:19:59;;;;;;;10.32;5.20;;;-4.00;99.90;;;;;;5040614;28;20056;-75
2022/01/09 05:22:27;;;;;;;10.07;4.80;;;-4.00;99.90;;;;;;5021008;28;20085;-76
2022/01/09 05:24:58;;;;;;;12.00;5.10;;;-4.00;99.90;;;;;;5018165;28;20437;-75
2022/01/09 05:27:27;;;;;;;7.72;5.05;;;-4.00;99.90;;;;;;5027931;28;20050;-75
2022/01/09 05:29:54;;;;;;;8.50;5.28;;;-4.00;99.90;;;;;;5026319;28;20087;-75
2022/01/09 05:32:22;;;;;;;13.10;5.57;;;-4.00;99.90;;;;;;5013607;28;20556;-76
2022/01/09 05:34:49;;;;;;;11.18;5.60;;;-4.00;99.90;;;;;;5013006;28;20049;-76
2022/01/09 05:37:16;;;;;;;12.07;5.18;;;-4.10;99.90;;;;;;5030643;28;20502;-76
2022/01/09 05:39:44;;;;;;;11.18;5.28;;;-4.00;99.90;;;;;;4997684;28;20462;-76
2022/01/09 05:42:14;;;;;;;8.13;5.38;;;-4.00;99.90;;;;;;5003233;28;20059;-76
2022/01/09 05:44:43;;;;;;;7.97;4.93;;;-4.00;99.90;;;;;;5013096;28;20042;-75
2022/01/09 05:47:10;;;;;;;10.68;5.07;;;-4.10;99.90;;;;;;5013132;28;20547;-75
2022/01/09 05:49:38;;;;;;;9.57;4.95;;;-4.10;99.90;;;;;;5001247;28;20046;-75
2022/01/09 05:52:07;;;;;;;10.73;5.22;;;-4.10;99.90;;;;;;5029708;28;20052;-74
2022/01/09 05:54:34;;;;;;;12.02;5.72;;;-4.10;99.90;;;;;;5028833;28;20099;-75
2022/01/09 05:57:05;;;;;;;7.65;5.50;;;-4.10;99.90;;;;;;5013236;28;20081;-75
2022/01/09 05:59:33;;;;;;;10.63;5.35;;;-4.10;99.90;;;;;;5027862;28;20057;-75
2022/01/09 06:02:03;;;;;;;9.68;5.28;;;-4.10;99.90;;;;;;4993692;28;20084;-75
2022/01/09 06:04:31;;;;;;;8.88;5.10;;;-4.10;99.90;;;;;;5019472;28;20049;-75
2022/01/09 06:06:59;;;;;;;7.38;5.47;;;-4.10;99.90;;;;;;5025408;28;20073;-76
2022/01/09 06:09:27;;;;;;;12.93;5.80;;;-4.10;99.90;;;;;;4993790;28;20396;-76
2022/01/09 06:11:54;;;;;;;10.93;5.60;;;-4.10;99.90;;;;;;5011404;28;20046;-75
2022/01/09 06:14:21;;;;;;;8.25;5.30;;;-4.10;99.90;;;;;;5015788;28;20112;-75
2022/01/09 06:16:48;;;;;;;11.45;5.32;;;-4.10;99.90;;;;;;5000278;28;20053;-75
2022/01/09 06:19:17;;;;;;;8.35;5.30;;;-4.10;99.90;;;;;;5000294;28;20532;-76
2022/01/09 06:21:45;;;;;;;8.27;4.53;;;-4.00;99.90;;;;;;5028613;28;20503;-75
2022/01/09 06:24:12;;;;;;;11.70;5.75;;;-4.10;99.90;;;;;;4997078;28;20050;-75
2022/01/09 06:26:40;;;;;;;12.90;5.68;;;-4.10;99.90;;;;;;5026729;28;20056;-78
2022/01/09 06:29:07;;;;;;;13.45;5.50;;;-4.10;99.90;;;;;;5037014;28;20444;-78
2022/01/09 06:31:34;;;;;;;9.90;5.47;;;-4.00;99.90;;;;;;5029455;28;20041;-78
2022/01/09 06:34:02;;;;;;;9.90;5.20;;;-4.10;99.90;;;;;;5034430;28;20061;-78
2022/01/09 06:36:31;;;;;;;10.38;5.68;;;-4.00;99.90;;;;;;5034091;28;20053;-82
2022/01/09 06:38:59;;;;;;;13.88;6.80;;;-4.00;99.90;;;;;;5034452;28;20536;-82
2022/01/09 06:41:26;;;;;;;11.82;5.45;;;-4.00;99.90;;;;;;5032435;28;20053;-79
2022/01/09 06:43:54;;;;;;;12.68;6.00;;;-4.00;99.90;;;;;;5047430;28;20428;-81
2022/01/09 06:46:22;;;;;;;18.38;5.93;;;-4.00;99.90;;;;;;5005928;28;20053;-82
2022/01/09 06:48:50;;;;;;;11.77;6.00;;;-4.00;99.90;;;;;;5033962;28;20140;-78
2022/01/09 06:51:18;;;;;;;12.68;5.97;;;-3.90;99.90;;;;;;5034093;28;20053;-80
2022/01/09 06:53:47;;;;;;;9.23;5.68;;;-3.90;99.90;;;;;;5031471;28;20136;-80
2022/01/09 06:56:14;;;;;;;12.43;6.57;;;-3.90;99.90;;;;;;5030308;28;20139;-80
2022/01/09 06:58:41;;;;;;;8.75;5.30;;;-3.90;99.90;;;;;;5013804;28;20038;-79
2022/01/09 07:01:09;;;;;;;11.35;5.70;;;-3.90;99.90;;;;;;5030721;28;20045;-77
2022/01/09 07:03:38;;;;;;;11.52;5.72;;;-3.90;99.90;;;;;;4996626;28;20073;-79
2022/01/09 07:06:06;;;;;;;9.82;6.03;;;-3.90;99.90;;;;;;5014748;28;20049;-79
2022/01/09 07:08:34;;;;;;;11.48;6.10;;;-3.90;99.90;;;;;;5033218;28;20124;-80
2022/01/09 07:11:05;;;;;;;9.90;5.82;;;-3.90;99.90;;;;;;5034060;28;20045;-77
2022/01/09 07:13:34;;;;;;;10.63;5.90;;;-3.90;99.90;;;;;;5034380;28;20585;-80
2022/01/09 07:16:02;;;;;;;12.63;6.90;;;-3.90;99.90;;;;;;5032576;28;20057;-79
2022/01/09 07:18:30;;;;;;;11.07;5.97;;;-3.90;99.90;;;;;;5033617;28;20342;-80
2022/01/09 07:20:59;;;;;;;9.88;6.18;;;-4.00;99.90;;;;;;5033910;28;20050;-79
2022/01/09 07:23:27;;;;;;;10.85;5.90;;;-4.00;99.90;;;;;;5033835;28;20075;-79
2022/01/09 07:25:56;;;;;;;11.05;6.40;;;-3.90;99.90;;;;;;5014942;28;20045;-79
2022/01/09 07:28:25;;;;;;;11.55;6.90;;;-3.80;99.90;;;;;;5034028;28;20068;-77
2022/01/09 07:30:53;;;;;;;14.40;6.05;;;-3.80;99.90;;;;;;5033918;28;20049;-80
2022/01/09 07:33:21;;;;;;;10.32;6.00;;;-3.80;99.90;;;;;;5015955;28;20103;-83
2022/01/09 07:35:48;;;;;;;9.65;6.32;;;-3.80;99.90;;;;;;5016161;28;20045;-81
2022/01/09 07:38:16;;;;;;;11.25;6.32;;;-3.80;99.90;;;;;;5034035;28;20077;-81
2022/01/09 07:40:49;;;;;;;11.18;6.65;;;-3.70;99.90;;;;;;5034173;28;20053;-82
2022/01/09 07:43:18;;;;;;;11.60;7.03;;;-3.70;99.90;;;;;;5033713;28;20060;-85
2022/01/09 07:45:47;;;;;;;11.65;6.45;;;-3.70;99.90;;;;;;5015869;28;20452;-83
2022/01/09 07:48:16;;;;;;;10.15;6.28;;;-3.70;99.90;;;;;;5015760;28;20403;-82
2022/01/09 07:50:45;;;;;;;10.98;6.05;;;-3.70;99.90;;;;;;5015987;28;20061;-84
2022/01/09 07:53:15;;;;;;;15.20;6.20;;;-3.70;99.90;;;;;;5032689;28;20493;-79
2022/01/09 07:55:43;;;;;;;11.10;5.75;;;-3.60;99.90;;;;;;5046077;28;20048;-78
2022/01/09 07:58:12;;;;;;;11.20;6.30;;;-3.60;99.90;;;;;;5030840;28;20049;-78
2022/01/09 08:00:41;;;;;;;12.93;6.57;;;-3.50;99.90;;;;;;5030816;28;20060;-78
2022/01/09 08:03:10;;;;;;;13.00;6.32;;;-3.50;99.90;;;;;;5032986;28;20053;-79
2022/01/09 08:05:43;;;;;;;11.23;6.43;;;-3.50;99.90;;;;;;5033623;28;20091;-78
2022/01/09 08:08:15;;;;;;;11.85;5.65;;;-3.50;99.90;;;;;;5033604;28;20052;-79
2022/01/09 08:10:44;;;;;;;;;;;-3.50;99.90;;;;;;5033826;28;20045;-80
2022/01/09 08:13:15;;;;;;;12.32;6.30;;;-3.50;99.90;;;;;;5048720;28;19925;-81
2022/01/09 08:15:42;;;;;;;12.68;6.43;;;-3.40;99.90;;;;;;5032019;28;20136;-80
2022/01/09 08:18:11;;;;;;;9.32;5.88;;;-3.40;99.90;;;;;;5032409;28;20053;-77
2022/01/09 08:20:39;;;;;;;11.70;6.53;;;-3.40;99.90;;;;;;5030835;28;20514;-77
2022/01/09 08:23:07;;;;;;;12.85;7.07;;;-3.30;99.90;;;;;;5030653;28;20060;-78
2022/01/09 08:25:35;;;;;;;12.60;6.95;;;-3.30;99.90;;;;;;5012455;28;20060;-78
2022/01/09 08:28:03;;;;;;;13.38;6.95;;;-3.20;99.90;;;;;;5012595;28;20422;-78
2022/01/09 08:30:34;;;;;;;15.38;6.10;;;-3.20;99.90;;;;;;5033347;28;20049;-78
2022/01/09 08:33:02;;;;;;;12.95;7.13;;;-3.10;99.90;;;;;;5006317;28;20060;-79
2022/01/09 08:35:31;;;;;;;13.52;6.72;;;-3.10;99.90;;;;;;4977319;28;20087;-80
2022/01/09 08:37:58;;;;;;;12.95;6.55;;;-3.10;99.90;;;;;;5024148;28;20568;-78
2022/01/09 08:40:26;;;;;;;12.52;5.90;;;-3.10;99.90;;;;;;5031649;28;20053;-76
2022/01/09 08:42:57;;;;;;;10.43;5.88;;;-3.10;99.90;;;;;;5030629;28;20061;-79
2022/01/09 08:45:24;;;;;;;14.32;7.07;;;-3.10;99.90;;;;;;5031342;28;20437;-77
2022/01/09 08:47:52;;;;;;;12.90;7.85;;;-3.10;99.90;;;;;;5031659;28;20111;-75
2022/01/09 08:50:20;;;;;;;10.35;6.10;;;-3.00;99.90;;;;;;5009090;28;20056;-82
2022/01/09 08:52:49;;;;;;;13.55;6.78;;;-2.90;99.90;;;;;;5036421;28;20049;-81
2022/01/09 08:55:20;;;;;;;15.10;6.82;;;-2.80;99.90;;;;;;5031791;28;20048;-81
2022/01/09 08:57:50;;;;;;;10.13;6.30;;;-2.80;99.90;;;;;;5031928;28;20041;-83
2022/01/09 09:00:23;;;;;;;11.55;5.75;;;-2.80;99.90;;;;;;5032044;28;20057;-82
2022/01/09 09:02:51;;;;;;;16.00;6.80;;;-2.80;99.90;;;;;;5031388;28;20049;-81
2022/01/09 09:05:20;;;;;;;13.82;6.43;;;-2.80;99.90;;;;;;5014070;28;20041;-82
2022/01/09 09:07:49;;;;;;;13.60;6.68;;;-2.80;99.90;;;;;;5031244;28;20081;-83
2022/01/09 09:10:17;;;;;;;11.25;6.50;;;-2.80;99.90;;;;;;5032030;28;20049;-81
2022/01/09 09:12:45;;;;;;;14.30;6.57;;;-2.70;99.90;;;;;;5031803;28;20132;-81
2022/01/09 09:15:12;;;;;;;13.32;6.88;;;-2.70;99.90;;;;;;5012872;28;20099;-81
2022/01/09 09:17:40;;;;;;;14.55;7.35;;;-2.80;99.90;;;;;;5028045;28;20403;-84
2022/01/09 09:20:09;;;;;;;12.68;6.70;;;-2.80;99.90;;;;;;5012925;28;20041;-82
2022/01/09 09:22:43;;;;;;;11.73;6.32;;;-2.80;99.90;;;;;;5029999;28;20051;-82
2022/01/09 09:25:13;;;;;;;13.85;7.43;;;-2.70;99.90;;;;;;5004270;28;20510;-81
2022/01/09 09:27:41;;;;;;;13.70;7.80;;;-2.70;99.90;;;;;;5015200;28;20037;-81
2022/01/09 09:30:11;;;;;;;13.52;7.13;;;-2.80;99.90;;;;;;5013095;28;20049;-82
2022/01/09 09:32:40;;;;;;;12.10;8.95;;;-2.80;99.90;;;;;;5011871;28;20060;-81
2022/01/09 09:35:15;;;;;;;12.27;7.60;;;-2.70;99.90;;;;;;5012470;28;20060;-83
2022/01/09 09:37:43;;;;;;;11.55;6.70;;;-2.60;99.90;;;;;;5013297;28;20041;-82
2022/01/09 09:40:13;;;;;;;12.95;7.38;;;-2.60;99.90;;;;;;5031674;28;20056;-81
2022/01/09 09:42:41;;;;;;;11.05;6.75;;;-2.50;99.90;;;;;;5031730;28;20502;-81
2022/01/09 09:45:11;;;;;;;12.65;7.78;;;-2.50;99.90;;;;;;5026491;28;20137;-81
2022/01/09 09:47:41;;;;;;;12.43;6.78;;;-2.60;99.90;;;;;;5022803;28;20552;-81
2022/01/09 09:50:11;;;;;;;12.05;7.20;;;-2.50;99.90;;;;;;5031168;28;20132;-82
2022/01/09 09:52:39;;;;;;;17.15;9.15;;;-2.50;99.90;;;;;;5017271;28;20413;-85
2022/01/09 09:55:08;;;;;;;16.15;8.85;;;-2.50;99.90;;;;;;5012030;28;20069;-80
2022/01/09 09:57:38;;;;;;;17.80;8.82;;;-2.50;99.90;;;;;;5012937;28;20144;-80
2022/01/09 10:00:11;;;;;;;14.88;8.70;;;-2.60;99.90;;;;;;5021301;28;20045;-80
2022/01/09 10:02:46;;;;;;;14.88;8.02;;;-2.60;99.90;;;;;;5014430;28;20509;-80
2022/01/09 10:05:16;;;;;;;12.38;7.60;;;-2.60;99.90;;;;;;5031751;28;20057;-82
2022/01/09 10:07:45;;;;;;;16.05;7.30;;;-2.60;99.90;;;;;;5030679;28;20053;-81
2022/01/09 10:10:15;;;;;;;15.43;7.85;;;-2.60;99.90;;;;;;4996717;28;20487;-78
2022/01/09 10:12:46;;;;;;;12.45;8.02;;;-2.50;99.90;;;;;;5014895;28;20053;-77
2022/01/09 10:15:18;;;;;;;12.77;7.18;;;-2.40;99.90;;;;;;5017894;28;20054;-82
2022/01/09 10:17:49;;;;;;;12.43;7.85;;;-2.40;99.90;;;;;;5028447;28;20081;-81
2022/01/09 10:20:20;;;;;;;15.85;8.55;;;-2.30;99.90;;;;;;5030752;28;20567;-82
2022/01/09 10:22:50;;;;;;;14.75;7.25;;;-2.30;99.90;;;;;;5043075;28;20057;-82
2022/01/09 10:25:24;;;;;;;14.85;7.50;;;-2.30;99.90;;;;;;5029210;28;20061;-84
2022/01/09 10:28:00;;;;;;;19.40;8.68;;;-2.30;99.90;;;;;;5028358;28;20069;-82
2022/01/09 10:30:30;;;;;;;14.50;7.65;;;-2.20;99.90;;;;;;5028020;28;20056;-79
2022/01/09 10:33:00;;;;;;;17.40;8.60;;;-2.20;99.90;;;;;;5010900;28;20057;-82
2022/01/09 10:35:30;;;;;;;14.15;7.72;;;-2.10;99.90;;;;;;5010166;28;20049;-84
2022/01/09 10:38:12;;;;;;;10.98;7.63;;;-2.10;99.90;;;;;;5029935;28;20115;-85
2022/01/09 10:40:44;;;;;;;15.35;7.30;;;-2.00;99.90;;;;;;4996260;28;20564;-86
2022/01/09 10:43:17;;;;;;;14.88;8.15;;;-1.90;99.90;;;;;;5030667;28;20050;-81
2022/01/09 10:45:49;;;;;;;16.27;8.93;;;-1.90;99.90;;;;;;5031020;28;20053;-84
2022/01/09 10:48:20;;;;;;;15.85;8.75;;;-1.90;99.90;;;;;;5031706;28;20107;-83
2022/01/09 10:50:50;;;;;;;14.60;7.78;;;-1.90;99.90;;;;;;5010968;28;20156;-83
2022/01/09 10:53:26;;;;;;;15.70;8.43;;;-1.90;99.90;;;;;;5000123;28;20045;-84
2022/01/09 10:56:11;;;;;;;15.00;8.60;;;-1.90;99.90;;;;;;5046055;28;20076;-82
2022/01/09 10:58:43;;;;;;;17.48;9.50;;;-1.80;99.90;;;;;;5028347;28;20053;-77
2022/01/09 11:01:15;;;;;;;17.83;8.33;;;-1.80;99.90;;;;;;5018819;28;20049;-77
2022/01/09 11:03:47;;;;;;;14.25;8.13;;;-1.80;99.90;;;;;;5014348;28;20365;-80
2022/01/09 11:06:15;;;;;;;12.40;8.15;;;-1.80;99.90;;;;;;5031259;28;20061;-81
2022/01/09 11:08:43;;;;;;;15.13;8.15;;;-1.70;99.90;;;;;;5033231;28;20045;-81
2022/01/09 11:11:21;;;;;;;17.70;8.88;;;-1.60;99.90;;;;;;5032169;28;20063;-79
2022/01/09 11:13:52;;;;;;;16.30;8.57;;;-1.50;99.90;;;;;;5029595;28;20042;-79
2022/01/09 11:16:36;;;;;;;12.45;8.13;;;-1.40;99.90;;;;;;5033363;28;20052;-78
2022/01/09 11:19:10;;;;;;;15.95;9.10;;;-1.30;99.90;;;;;;5015625;28;20054;-78
2022/01/09 11:21:41;;;;;;;15.70;8.40;;;-1.20;99.90;;;;;;5032082;28;20056;-77
2022/01/09 11:24:29;;;;;;;13.20;7.97;;;-1.10;99.90;;;;;;5031763;28;20445;-78
2022/01/09 11:27:01;;;;;;;12.13;7.97;;;-1.00;99.90;;;;;;5028765;28;20382;-78
2022/01/09 11:29:56;;;;;;;16.05;9.55;;;-1.00;99.90;;;;;;5016080;28;20100;-78
2022/01/09 11:32:53;;;;;;;17.90;9.13;;;-1.10;99.90;;;;;;5032031;28;20068;-77
2022/01/09 11:35:37;;;;;;;17.05;8.95;;;-1.20;99.90;;;;;;5031689;28;20049;-77
2022/01/09 11:38:15;;;;;;;14.85;8.77;;;-1.20;99.90;;;;;;5032261;28;20127;-79
2022/01/09 11:40:43;;;;;;;13.77;8.25;;;-1.30;99.90;;;;;;5033014;28;20099;-77
2022/01/09 11:43:14;;;;;;;15.95;9.18;;;-1.30;99.90;;;;;;5032530;28;20050;-79
2022/01/09 11:45:50;;;;;;;18.25;9.90;;;-1.30;99.90;;;;;;5033737;28;20065;-81
2022/01/09 11:48:20;;;;;;;16.67;10.00;;;-1.30;99.90;;;;;;5030384;28;20053;-79
2022/01/09 11:51:16;;;;;;;18.38;9.18;;;-1.40;99.90;;;;;;5027476;28;20100;-79
2022/01/09 11:54:06;;;;;;;22.25;10.93;;;-1.50;99.90;;;;;;5030391;28;20132;-78
2022/01/09 11:57:00;;;;;;;16.92;8.85;;;-1.60;99.90;;;;;;5029573;28;20091;-77
2022/01/09 11:59:31;;;;;;;16.10;9.68;;;-1.60;99.90;;;;;;5030491;28;20049;-78
2022/01/09 12:02:03;;;;;;;16.25;8.88;;;-1.50;99.90;;;;;;5013121;28;20046;-79
2022/01/09 12:04:57;;;;;;;17.58;10.77;;;-1.40;99.90;;;;;;5028124;28;20407;-78
2022/01/09 12:08:05;;;;;;;19.50;10.85;;;-1.40;99.90;;;;;;5030228;28;20069;-77
2022/01/09 12:10:39;;;;;;;16.77;10.18;;;-1.50;99.90;;;;;;5010854;28;20048;-77
2022/01/09 12:13:48;;;;;;;18.60;9.27;;;-1.50;99.90;;;;;;5031161;28;20050;-76
2022/01/09 12:16:51;;;;;;;18.45;10.13;;;-1.50;99.90;;;;;;5010811;28;20045;-76
2022/01/09 12:20:03;;;;;;;18.73;10.45;;;-1.50;99.90;;;;;;5024106;28;20402;-77
2022/01/09 12:22:53;;;;;;;17.00;10.13;;;-1.40;99.90;;;;;;4993633;28;20041;-77
2022/01/09 12:25:45;;;;;;;14.73;9.50;;;-1.30;99.90;;;;;;5030165;28;20148;-76
2022/01/09 12:28:17;;;;;;;20.23;10.88;;;-1.30;99.90;;;;;;5027780;28;20045;-76
2022/01/09 12:30:57;;;;;;;18.33;10.00;;;-1.30;99.90;;;;;;5029728;28;20045;-76
2022/01/09 12:33:51;;;;;;;17.77;9.73;;;-1.30;99.90;;;;;;5012230;28;20508;-75
2022/01/09 12:36:27;;;;;;;20.42;11.43;;;-1.40;99.90;;;;;;5027628;28;20509;-75
2022/01/09 12:38:59;;;;;;;20.20;11.23;;;-1.40;99.90;;;;;;5028351;28;20192;-75
2022/01/09 12:41:33;;;;;;;19.38;10.57;;;-1.50;99.90;;;;;;5030004;28;20041;-77
2022/01/09 12:44:05;;;;;;;19.73;11.05;;;-1.60;99.90;;;;;;5012635;28;20045;-77
2022/01/09 12:46:38;;;;;;;;;;;-1.70;99.90;;;;;;5024886;28;20041;-80
2022/01/09 12:49:09;;;;;;;20.90;10.98;;;-1.70;99.90;;;;;;5023632;28;19924;-78
2022/01/09 12:51:46;;;;;;;18.85;11.35;;;-1.80;99.90;;;;;;5029180;28;20079;-77
2022/01/09 12:54:13;;;;;;;22.30;11.23;;;-1.70;99.90;;;;;;5025230;28;20517;-76